sensor_id;sensor_type;location;lat;lon;timestamp;temperature;humidity
21762;DHT22;11203;50.870;20.682;2022-07-21T00:01:33;19.20;1.00
21762;DHT22;11203;50.870;20.682;2022-07-21T00:03:59;19.20;1.00
21762;DHT22;11203;50.870;20.682;2022-07-21T00:06:26;19.20;1.00
21762;DHT22;11203;50.870;20.682;2022-07-21T00:08:52;19.10;1.00
21762;DHT22;11203;50.870;20.682;2022-07-21T00:11:18;19.10;1.00
21762;DHT22;11203;50.870;20.682;2022-07-21T00:13:44;19.00;1.00
21762;DHT22;11203;50.870;20.682;2022-07-21T00:16:10;19.00;1.00
21762;DHT22;11203;50.870;20.682;2022-07-21T00:18:36;18.90;1.00
21762;DHT22;11203;50.870;20.682;2022-07-21T00:21:03;18.90;1.00
21762;DHT22;11203;50.870;20.682;2022-07-21T00:23:29;18.90;1.00
21762;DHT22;11203;50.870;20.682;2022-07-21T00:25:55;18.90;1.00
21762;DHT22;11203;50.870;20.682;2022-07-21T00:28:21;18.90;1.00
21762;DHT22;11203;50.870;20.682;2022-07-21T00:30:47;18.90;1.00
21762;DHT22;11203;50.870;20.682;2022-07-21T00:33:13;18.80;1.00
21762;DHT22;11203;50.870;20.682;2022-07-21T00:35:39;18.80;1.00
21762;DHT22;11203;50.870;20.682;2022-07-21T00:38:06;18.80;1.00
21762;DHT22;11203;50.870;20.682;2022-07-21T00:40:32;18.80;1.00
21762;DHT22;11203;50.870;20.682;2022-07-21T00:42:58;18.70;1.00
21762;DHT22;11203;50.870;20.682;2022-07-21T00:45:25;18.70;1.00
21762;DHT22;11203;50.870;20.682;2022-07-21T00:47:51;18.60;1.00
21762;DHT22;11203;50.870;20.682;2022-07-21T00:50:20;18.60;1.00
21762;DHT22;11203;50.870;20.682;2022-07-21T00:52:47;18.40;1.00
21762;DHT22;11203;50.870;20.682;2022-07-21T00:55:16;18.40;1.00
21762;DHT22;11203;50.870;20.682;2022-07-21T00:57:43;18.20;1.00
21762;DHT22;11203;50.870;20.682;2022-07-21T01:00:18;18.10;1.00
21762;DHT22;11203;50.870;20.682;2022-07-21T01:02:49;18.10;1.00
21762;DHT22;11203;50.870;20.682;2022-07-21T01:05:16;18.00;1.00
21762;DHT22;11203;50.870;20.682;2022-07-21T01:07:48;17.90;1.00
21762;DHT22;11203;50.870;20.682;2022-07-21T01:10:16;17.80;1.00
21762;DHT22;11203;50.870;20.682;2022-07-21T01:12:43;17.60;1.00
21762;DHT22;11203;50.870;20.682;2022-07-21T01:15:11;17.50;1.00
21762;DHT22;11203;50.870;20.682;2022-07-21T01:17:38;17.60;1.00
21762;DHT22;11203;50.870;20.682;2022-07-21T01:20:08;17.60;1.00
21762;DHT22;11203;50.870;20.682;2022-07-21T01:22:38;17.50;99.90
21762;DHT22;11203;50.870;20.682;2022-07-21T01:25:06;17.30;99.90
21762;DHT22;11203;50.870;20.682;2022-07-21T01:27:32;17.20;99.90
21762;DHT22;11203;50.870;20.682;2022-07-21T01:29:59;17.20;99.90
21762;DHT22;11203;50.870;20.682;2022-07-21T01:32:26;17.20;1.00
21762;DHT22;11203;50.870;20.682;2022-07-21T01:34:53;17.20;1.00
21762;DHT22;11203;50.870;20.682;2022-07-21T01:37:23;17.10;1.00
21762;DHT22;11203;50.870;20.682;2022-07-21T01:39:53;17.10;1.00
21762;DHT22;11203;50.870;20.682;2022-07-21T01:42:38;17.10;1.00
21762;DHT22;11203;50.870;20.682;2022-07-21T01:45:05;17.10;1.00
21762;DHT22;11203;50.870;20.682;2022-07-21T01:47:32;16.90;99.90
21762;DHT22;11203;50.870;20.682;2022-07-21T01:49:59;16.80;1.00
21762;DHT22;11203;50.870;20.682;2022-07-21T01:52:25;16.80;1.00
21762;DHT22;11203;50.870;20.682;2022-07-21T01:54:51;16.80;1.00
21762;DHT22;11203;50.870;20.682;2022-07-21T01:57:17;16.80;1.00
21762;DHT22;11203;50.870;20.682;2022-07-21T01:59:43;16.80;1.00
21762;DHT22;11203;50.870;20.682;2022-07-21T02:02:10;16.90;1.00
21762;DHT22;11203;50.870;20.682;2022-07-21T02:04:36;16.80;1.00
21762;DHT22;11203;50.870;20.682;2022-07-21T02:07:02;16.70;99.90
21762;DHT22;11203;50.870;20.682;2022-07-21T02:09:29;16.70;1.00
21762;DHT22;11203;50.870;20.682;2022-07-21T02:11:55;16.60;93.10
21762;DHT22;11203;50.870;20.682;2022-07-21T02:14:21;16.60;1.00
21762;DHT22;11203;50.870;20.682;2022-07-21T02:16:47;16.50;1.00
21762;DHT22;11203;50.870;20.682;2022-07-21T02:19:13;16.50;1.00
21762;DHT22;11203;50.870;20.682;2022-07-21T02:21:39;16.30;1.00
21762;DHT22;11203;50.870;20.682;2022-07-21T02:24:06;16.20;1.00
21762;DHT22;11203;50.870;20.682;2022-07-21T02:26:32;16.20;1.00
21762;DHT22;11203;50.870;20.682;2022-07-21T02:28:58;16.10;1.00
21762;DHT22;11203;50.870;20.682;2022-07-21T02:31:24;16.20;99.90
21762;DHT22;11203;50.870;20.682;2022-07-21T02:33:50;16.20;1.00
21762;DHT22;11203;50.870;20.682;2022-07-21T02:36:16;16.00;1.00
21762;DHT22;11203;50.870;20.682;2022-07-21T02:38:42;16.00;1.00
21762;DHT22;11203;50.870;20.682;2022-07-21T02:41:08;16.00;99.90
21762;DHT22;11203;50.870;20.682;2022-07-21T02:43:34;15.80;1.00
21762;DHT22;11203;50.870;20.682;2022-07-21T02:46:00;15.80;1.00
21762;DHT22;11203;50.870;20.682;2022-07-21T02:48:26;15.70;1.00
21762;DHT22;11203;50.870;20.682;2022-07-21T02:50:52;15.60;1.00
21762;DHT22;11203;50.870;20.682;2022-07-21T02:53:19;15.70;1.00
21762;DHT22;11203;50.870;20.682;2022-07-21T02:55:47;15.70;1.00
21762;DHT22;11203;50.870;20.682;2022-07-21T02:58:19;15.80;1.00
21762;DHT22;11203;50.870;20.682;2022-07-21T03:00:51;15.80;1.00
21762;DHT22;11203;50.870;20.682;2022-07-21T03:03:22;15.70;1.00
21762;DHT22;11203;50.870;20.682;2022-07-21T03:05:50;15.70;1.00
21762;DHT22;11203;50.870;20.682;2022-07-21T03:08:17;15.70;18.40
21762;DHT22;11203;50.870;20.682;2022-07-21T03:10:43;15.70;1.00
21762;DHT22;11203;50.870;20.682;2022-07-21T03:13:09;15.70;1.00
21762;DHT22;11203;50.870;20.682;2022-07-21T03:15:36;15.60;1.00
21762;DHT22;11203;50.870;20.682;2022-07-21T03:18:03;15.50;99.90
21762;DHT22;11203;50.870;20.682;2022-07-21T03:20:31;15.60;99.90
21762;DHT22;11203;50.870;20.682;2022-07-21T03:22:59;15.60;1.00
21762;DHT22;11203;50.870;20.682;2022-07-21T03:25:25;15.60;1.00
21762;DHT22;11203;50.870;20.682;2022-07-21T03:27:52;15.60;1.00
21762;DHT22;11203;50.870;20.682;2022-07-21T03:30:18;15.90;1.00
21762;DHT22;11203;50.870;20.682;2022-07-21T03:32:45;16.20;99.90
21762;DHT22;11203;50.870;20.682;2022-07-21T03:35:12;16.50;1.00
21762;DHT22;11203;50.870;20.682;2022-07-21T03:37:58;16.70;1.00
21762;DHT22;11203;50.870;20.682;2022-07-21T03:40:31;16.60;1.00
21762;DHT22;11203;50.870;20.682;2022-07-21T03:43:00;16.40;1.00
21762;DHT22;11203;50.870;20.682;2022-07-21T03:45:28;16.30;1.00
21762;DHT22;11203;50.870;20.682;2022-07-21T03:47:56;16.30;1.00
21762;DHT22;11203;50.870;20.682;2022-07-21T03:50:23;16.30;68.90
21762;DHT22;11203;50.870;20.682;2022-07-21T03:52:50;16.20;99.90
21762;DHT22;11203;50.870;20.682;2022-07-21T03:55:16;16.20;1.00
21762;DHT22;11203;50.870;20.682;2022-07-21T03:57:50;16.20;1.00
21762;DHT22;11203;50.870;20.682;2022-07-21T04:00:36;16.20;1.00
21762;DHT22;11203;50.870;20.682;2022-07-21T04:03:05;16.30;1.00
21762;DHT22;11203;50.870;20.682;2022-07-21T04:05:32;16.40;1.00
21762;DHT22;11203;50.870;20.682;2022-07-21T04:07:59;16.80;99.90
21762;DHT22;11203;50.870;20.682;2022-07-21T04:10:28;17.00;1.00
21762;DHT22;11203;50.870;20.682;2022-07-21T04:12:57;17.20;1.00
21762;DHT22;11203;50.870;20.682;2022-07-21T04:15:24;17.30;99.90
21762;DHT22;11203;50.870;20.682;2022-07-21T04:17:50;17.60;1.00
21762;DHT22;11203;50.870;20.682;2022-07-21T04:20:18;17.80;1.00
21762;DHT22;11203;50.870;20.682;2022-07-21T04:22:45;18.00;99.90
21762;DHT22;11203;50.870;20.682;2022-07-21T04:25:13;18.10;1.00
21762;DHT22;11203;50.870;20.682;2022-07-21T04:27:40;18.30;99.90
21762;DHT22;11203;50.870;20.682;2022-07-21T04:30:08;18.40;1.00
21762;DHT22;11203;50.870;20.682;2022-07-21T04:32:36;18.50;99.90
21762;DHT22;11203;50.870;20.682;2022-07-21T04:35:04;18.50;1.00
21762;DHT22;11203;50.870;20.682;2022-07-21T04:37:31;18.60;1.00
21762;DHT22;11203;50.870;20.682;2022-07-21T04:39:57;18.70;1.00
21762;DHT22;11203;50.870;20.682;2022-07-21T04:42:24;18.70;1.00
21762;DHT22;11203;50.870;20.682;2022-07-21T04:44:50;18.80;1.00
21762;DHT22;11203;50.870;20.682;2022-07-21T04:47:16;18.90;1.00
21762;DHT22;11203;50.870;20.682;2022-07-21T04:49:43;19.00;1.00
21762;DHT22;11203;50.870;20.682;2022-07-21T04:52:09;19.00;1.00
21762;DHT22;11203;50.870;20.682;2022-07-21T04:54:35;19.10;99.90
21762;DHT22;11203;50.870;20.682;2022-07-21T04:57:02;19.20;1.00
21762;DHT22;11203;50.870;20.682;2022-07-21T04:59:29;19.20;1.00
21762;DHT22;11203;50.870;20.682;2022-07-21T05:01:56;19.30;1.00
21762;DHT22;11203;50.870;20.682;2022-07-21T05:04:23;19.40;1.00
21762;DHT22;11203;50.870;20.682;2022-07-21T05:06:49;19.40;1.00
21762;DHT22;11203;50.870;20.682;2022-07-21T05:09:15;19.50;1.00
21762;DHT22;11203;50.870;20.682;2022-07-21T05:11:41;19.60;99.90
21762;DHT22;11203;50.870;20.682;2022-07-21T05:14:07;19.70;99.90
21762;DHT22;11203;50.870;20.682;2022-07-21T05:16:33;19.70;44.80
21762;DHT22;11203;50.870;20.682;2022-07-21T05:18:59;19.80;1.00
21762;DHT22;11203;50.870;20.682;2022-07-21T05:21:25;19.90;1.00
21762;DHT22;11203;50.870;20.682;2022-07-21T05:23:51;20.00;1.00
21762;DHT22;11203;50.870;20.682;2022-07-21T05:26:17;20.00;1.00
21762;DHT22;11203;50.870;20.682;2022-07-21T05:28:43;20.10;1.00
21762;DHT22;11203;50.870;20.682;2022-07-21T05:31:09;20.10;1.00
21762;DHT22;11203;50.870;20.682;2022-07-21T05:33:36;20.20;1.00
21762;DHT22;11203;50.870;20.682;2022-07-21T05:36:03;20.30;1.00
21762;DHT22;11203;50.870;20.682;2022-07-21T05:38:30;20.30;99.90
21762;DHT22;11203;50.870;20.682;2022-07-21T05:40:56;20.40;99.90
21762;DHT22;11203;50.870;20.682;2022-07-21T05:43:25;20.50;99.90
21762;DHT22;11203;50.870;20.682;2022-07-21T05:45:52;20.60;99.90
21762;DHT22;11203;50.870;20.682;2022-07-21T05:48:18;20.60;99.90
21762;DHT22;11203;50.870;20.682;2022-07-21T05:50:44;20.70;99.90
21762;DHT22;11203;50.870;20.682;2022-07-21T05:53:10;20.70;99.90
21762;DHT22;11203;50.870;20.682;2022-07-21T05:55:36;20.80;99.90
21762;DHT22;11203;50.870;20.682;2022-07-21T05:58:02;21.00;99.90
21762;DHT22;11203;50.870;20.682;2022-07-21T06:00:28;21.00;99.90
21762;DHT22;11203;50.870;20.682;2022-07-21T06:02:54;21.10;99.90
21762;DHT22;11203;50.870;20.682;2022-07-21T06:05:20;21.20;72.10
21762;DHT22;11203;50.870;20.682;2022-07-21T06:07:46;21.20;21.70
21762;DHT22;11203;50.870;20.682;2022-07-21T06:10:14;21.30;36.60
21762;DHT22;11203;50.870;20.682;2022-07-21T06:12:41;21.40;1.00
21762;DHT22;11203;50.870;20.682;2022-07-21T06:15:08;21.50;1.00
21762;DHT22;11203;50.870;20.682;2022-07-21T06:17:45;21.60;1.00
21762;DHT22;11203;50.870;20.682;2022-07-21T06:20:12;21.60;1.00
21762;DHT22;11203;50.870;20.682;2022-07-21T06:22:39;21.70;1.00
21762;DHT22;11203;50.870;20.682;2022-07-21T06:25:06;21.80;1.00
21762;DHT22;11203;50.870;20.682;2022-07-21T06:27:32;21.90;1.00
21762;DHT22;11203;50.870;20.682;2022-07-21T06:29:59;22.00;1.00
21762;DHT22;11203;50.870;20.682;2022-07-21T06:32:26;22.00;1.00
21762;DHT22;11203;50.870;20.682;2022-07-21T06:34:52;22.10;1.00
21762;DHT22;11203;50.870;20.682;2022-07-21T06:37:18;22.20;1.00
21762;DHT22;11203;50.870;20.682;2022-07-21T06:39:44;22.20;1.00
21762;DHT22;11203;50.870;20.682;2022-07-21T06:42:10;22.20;1.00
21762;DHT22;11203;50.870;20.682;2022-07-21T06:44:36;22.30;1.00
21762;DHT22;11203;50.870;20.682;2022-07-21T06:47:02;22.40;1.00
21762;DHT22;11203;50.870;20.682;2022-07-21T06:49:33;22.50;1.00
21762;DHT22;11203;50.870;20.682;2022-07-21T06:51:59;22.50;1.00
21762;DHT22;11203;50.870;20.682;2022-07-21T06:54:26;22.50;1.00
21762;DHT22;11203;50.870;20.682;2022-07-21T06:56:51;22.70;1.00
21762;DHT22;11203;50.870;20.682;2022-07-21T06:59:18;22.70;1.00
21762;DHT22;11203;50.870;20.682;2022-07-21T07:01:44;22.80;1.00
21762;DHT22;11203;50.870;20.682;2022-07-21T07:04:10;23.00;1.00
21762;DHT22;11203;50.870;20.682;2022-07-21T07:06:36;22.90;1.00
21762;DHT22;11203;50.870;20.682;2022-07-21T07:09:02;23.00;1.00
21762;DHT22;11203;50.870;20.682;2022-07-21T07:11:29;22.90;1.00
21762;DHT22;11203;50.870;20.682;2022-07-21T07:13:55;23.00;1.00
21762;DHT22;11203;50.870;20.682;2022-07-21T07:16:21;23.10;1.00
21762;DHT22;11203;50.870;20.682;2022-07-21T07:18:47;23.20;1.00
21762;DHT22;11203;50.870;20.682;2022-07-21T07:21:13;23.20;1.00
21762;DHT22;11203;50.870;20.682;2022-07-21T07:23:39;23.30;1.00
21762;DHT22;11203;50.870;20.682;2022-07-21T07:26:06;23.30;1.00
21762;DHT22;11203;50.870;20.682;2022-07-21T07:28:33;23.50;1.00
21762;DHT22;11203;50.870;20.682;2022-07-21T07:30:59;23.50;1.00
21762;DHT22;11203;50.870;20.682;2022-07-21T07:33:25;23.50;1.00
21762;DHT22;11203;50.870;20.682;2022-07-21T07:35:53;23.50;99.90
21762;DHT22;11203;50.870;20.682;2022-07-21T07:38:21;23.50;99.90
21762;DHT22;11203;50.870;20.682;2022-07-21T07:40:47;23.60;99.90
21762;DHT22;11203;50.870;20.682;2022-07-21T07:43:14;23.70;99.90
21762;DHT22;11203;50.870;20.682;2022-07-21T07:45:39;23.80;99.90
21762;DHT22;11203;50.870;20.682;2022-07-21T07:48:06;23.80;99.90
21762;DHT22;11203;50.870;20.682;2022-07-21T07:50:32;24.00;99.90
21762;DHT22;11203;50.870;20.682;2022-07-21T07:52:58;23.90;99.90
21762;DHT22;11203;50.870;20.682;2022-07-21T07:55:24;24.00;99.90
21762;DHT22;11203;50.870;20.682;2022-07-21T07:57:50;23.90;99.90
21762;DHT22;11203;50.870;20.682;2022-07-21T08:00:18;23.90;99.90
21762;DHT22;11203;50.870;20.682;2022-07-21T08:02:46;24.00;99.90
21762;DHT22;11203;50.870;20.682;2022-07-21T08:05:12;24.20;99.90
21762;DHT22;11203;50.870;20.682;2022-07-21T08:07:39;24.20;99.90
21762;DHT22;11203;50.870;20.682;2022-07-21T08:10:07;24.20;99.90
21762;DHT22;11203;50.870;20.682;2022-07-21T08:12:34;24.20;99.90
21762;DHT22;11203;50.870;20.682;2022-07-21T08:15:01;24.20;99.90
21762;DHT22;11203;50.870;20.682;2022-07-21T08:17:27;24.20;99.90
21762;DHT22;11203;50.870;20.682;2022-07-21T08:19:53;24.40;99.90
21762;DHT22;11203;50.870;20.682;2022-07-21T08:22:19;24.60;99.90
21762;DHT22;11203;50.870;20.682;2022-07-21T08:24:45;24.50;99.90
21762;DHT22;11203;50.870;20.682;2022-07-21T08:27:11;24.60;99.90
21762;DHT22;11203;50.870;20.682;2022-07-21T08:29:37;24.50;99.90
21762;DHT22;11203;50.870;20.682;2022-07-21T08:32:03;24.70;99.90
21762;DHT22;11203;50.870;20.682;2022-07-21T08:34:29;24.70;99.90
21762;DHT22;11203;50.870;20.682;2022-07-21T08:36:57;24.80;99.90
21762;DHT22;11203;50.870;20.682;2022-07-21T08:39:23;24.90;99.90
21762;DHT22;11203;50.870;20.682;2022-07-21T08:41:50;24.80;99.90
21762;DHT22;11203;50.870;20.682;2022-07-21T08:44:17;24.90;99.90
21762;DHT22;11203;50.870;20.682;2022-07-21T08:46:49;24.70;99.90
21762;DHT22;11203;50.870;20.682;2022-07-21T08:49:20;24.70;99.90
21762;DHT22;11203;50.870;20.682;2022-07-21T08:51:48;24.80;99.90
21762;DHT22;11203;50.870;20.682;2022-07-21T08:54:15;24.80;99.90
21762;DHT22;11203;50.870;20.682;2022-07-21T08:56:41;24.80;99.90
21762;DHT22;11203;50.870;20.682;2022-07-21T08:59:07;25.00;99.90
21762;DHT22;11203;50.870;20.682;2022-07-21T09:01:33;25.00;99.90
21762;DHT22;11203;50.870;20.682;2022-07-21T09:06:58;25.00;99.90
21762;DHT22;11203;50.870;20.682;2022-07-21T09:09:28;24.90;99.90
21762;DHT22;11203;50.870;20.682;2022-07-21T09:11:57;25.00;99.90
21762;DHT22;11203;50.870;20.682;2022-07-21T09:14:25;25.00;99.90
21762;DHT22;11203;50.870;20.682;2022-07-21T09:16:57;25.00;99.90
21762;DHT22;11203;50.870;20.682;2022-07-21T09:19:30;25.00;99.90
21762;DHT22;11203;50.870;20.682;2022-07-21T09:22:00;25.00;99.90
21762;DHT22;11203;50.870;20.682;2022-07-21T09:24:36;25.00;99.90
21762;DHT22;11203;50.870;20.682;2022-07-21T09:27:23;25.00;99.90
21762;DHT22;11203;50.870;20.682;2022-07-21T09:29:57;25.10;99.90
21762;DHT22;11203;50.870;20.682;2022-07-21T09:32:29;25.20;99.90
21762;DHT22;11203;50.870;20.682;2022-07-21T09:35:08;25.10;99.90
21762;DHT22;11203;50.870;20.682;2022-07-21T09:37:38;25.30;99.90
21762;DHT22;11203;50.870;20.682;2022-07-21T09:40:06;25.60;99.90
21762;DHT22;11203;50.870;20.682;2022-07-21T09:42:40;25.60;99.90
21762;DHT22;11203;50.870;20.682;2022-07-21T09:45:15;25.60;99.90
21762;DHT22;11203;50.870;20.682;2022-07-21T09:47:45;25.80;99.90
21762;DHT22;11203;50.870;20.682;2022-07-21T09:50:14;25.90;99.90
21762;DHT22;11203;50.870;20.682;2022-07-21T09:52:44;26.00;99.90
21762;DHT22;11203;50.870;20.682;2022-07-21T09:55:13;26.20;99.90
21762;DHT22;11203;50.870;20.682;2022-07-21T09:57:42;26.30;99.90
21762;DHT22;11203;50.870;20.682;2022-07-21T10:00:10;26.30;99.90
21762;DHT22;11203;50.870;20.682;2022-07-21T10:02:38;26.10;99.90
21762;DHT22;11203;50.870;20.682;2022-07-21T10:05:13;26.10;99.90
21762;DHT22;11203;50.870;20.682;2022-07-21T10:07:46;26.30;99.90
21762;DHT22;11203;50.870;20.682;2022-07-21T10:10:15;26.40;99.90
21762;DHT22;11203;50.870;20.682;2022-07-21T10:12:42;26.50;99.90
21762;DHT22;11203;50.870;20.682;2022-07-21T10:15:09;26.50;99.90
21762;DHT22;11203;50.870;20.682;2022-07-21T10:17:36;26.50;99.90
21762;DHT22;11203;50.870;20.682;2022-07-21T10:23:02;26.70;99.90
21762;DHT22;11203;50.870;20.682;2022-07-21T10:25:34;26.80;99.90
21762;DHT22;11203;50.870;20.682;2022-07-21T10:28:36;26.80;99.90
21762;DHT22;11203;50.870;20.682;2022-07-21T10:31:22;26.90;99.90
21762;DHT22;11203;50.870;20.682;2022-07-21T10:47:12;27.20;1.00
21762;DHT22;11203;50.870;20.682;2022-07-21T10:49:47;27.10;1.00
21762;DHT22;11203;50.870;20.682;2022-07-21T10:57:38;27.40;1.00
21762;DHT22;11203;50.870;20.682;2022-07-21T11:00:26;27.50;1.00
21762;DHT22;11203;50.870;20.682;2022-07-21T11:03:51;27.40;1.00
21762;DHT22;11203;50.870;20.682;2022-07-21T11:11:32;27.70;1.00
21762;DHT22;11203;50.870;20.682;2022-07-21T11:22:11;27.50;1.00
21762;DHT22;11203;50.870;20.682;2022-07-21T11:24:52;27.70;1.00
21762;DHT22;11203;50.870;20.682;2022-07-21T11:27:24;27.80;1.00
21762;DHT22;11203;50.870;20.682;2022-07-21T11:29:59;27.80;1.00
21762;DHT22;11203;50.870;20.682;2022-07-21T11:32:27;28.10;1.00
21762;DHT22;11203;50.870;20.682;2022-07-21T11:34:58;28.10;1.00
21762;DHT22;11203;50.870;20.682;2022-07-21T11:37:36;28.20;1.00
21762;DHT22;11203;50.870;20.682;2022-07-21T11:40:22;28.20;1.00
21762;DHT22;11203;50.870;20.682;2022-07-21T11:42:51;28.20;1.00
21762;DHT22;11203;50.870;20.682;2022-07-21T11:45:23;28.30;1.00
21762;DHT22;11203;50.870;20.682;2022-07-21T11:47:51;28.20;1.00
21762;DHT22;11203;50.870;20.682;2022-07-21T11:50:18;28.30;1.00
21762;DHT22;11203;50.870;20.682;2022-07-21T11:52:45;28.10;1.00
21762;DHT22;11203;50.870;20.682;2022-07-21T11:55:12;28.20;1.00
21762;DHT22;11203;50.870;20.682;2022-07-21T11:57:45;28.30;1.00
21762;DHT22;11203;50.870;20.682;2022-07-21T12:00:14;28.30;1.00
21762;DHT22;11203;50.870;20.682;2022-07-21T12:02:40;28.30;1.00
21762;DHT22;11203;50.870;20.682;2022-07-21T12:05:08;28.30;1.00
21762;DHT22;11203;50.870;20.682;2022-07-21T12:07:45;28.60;1.00
21762;DHT22;11203;50.870;20.682;2022-07-21T12:10:26;28.50;1.00
21762;DHT22;11203;50.870;20.682;2022-07-21T12:13:01;28.50;1.00
21762;DHT22;11203;50.870;20.682;2022-07-21T12:15:30;28.50;1.00
21762;DHT22;11203;50.870;20.682;2022-07-21T12:18:20;28.40;1.00
21762;DHT22;11203;50.870;20.682;2022-07-21T12:21:01;28.60;1.00
21762;DHT22;11203;50.870;20.682;2022-07-21T12:23:30;28.50;1.00
21762;DHT22;11203;50.870;20.682;2022-07-21T12:25:59;28.60;1.00
21762;DHT22;11203;50.870;20.682;2022-07-21T12:28:46;28.70;1.00
21762;DHT22;11203;50.870;20.682;2022-07-21T12:31:18;28.80;1.00
21762;DHT22;11203;50.870;20.682;2022-07-21T12:33:54;28.90;1.00
21762;DHT22;11203;50.870;20.682;2022-07-21T12:36:21;29.00;1.00
21762;DHT22;11203;50.870;20.682;2022-07-21T12:38:49;29.00;1.00
21762;DHT22;11203;50.870;20.682;2022-07-21T12:41:18;29.00;1.00
21762;DHT22;11203;50.870;20.682;2022-07-21T12:43:55;29.10;1.00
21762;DHT22;11203;50.870;20.682;2022-07-21T12:46:31;29.00;1.00
21762;DHT22;11203;50.870;20.682;2022-07-21T12:49:07;29.00;1.00
21762;DHT22;11203;50.870;20.682;2022-07-21T12:51:35;28.80;1.00
21762;DHT22;11203;50.870;20.682;2022-07-21T12:54:02;28.90;1.00
21762;DHT22;11203;50.870;20.682;2022-07-21T12:56:31;29.10;1.00
21762;DHT22;11203;50.870;20.682;2022-07-21T12:58:59;29.20;1.00
21762;DHT22;11203;50.870;20.682;2022-07-21T13:01:28;29.20;1.00
21762;DHT22;11203;50.870;20.682;2022-07-21T13:03:57;29.20;1.00
21762;DHT22;11203;50.870;20.682;2022-07-21T13:06:23;29.20;1.00
21762;DHT22;11203;50.870;20.682;2022-07-21T13:08:49;29.30;1.00
21762;DHT22;11203;50.870;20.682;2022-07-21T13:11:17;29.10;1.00
21762;DHT22;11203;50.870;20.682;2022-07-21T13:13:45;29.20;1.00
21762;DHT22;11203;50.870;20.682;2022-07-21T13:16:12;29.20;1.00
21762;DHT22;11203;50.870;20.682;2022-07-21T13:18:39;29.30;1.00
21762;DHT22;11203;50.870;20.682;2022-07-21T13:21:05;29.30;1.00
21762;DHT22;11203;50.870;20.682;2022-07-21T13:23:31;29.20;1.00
21762;DHT22;11203;50.870;20.682;2022-07-21T13:25:57;29.30;1.00
21762;DHT22;11203;50.870;20.682;2022-07-21T13:28:23;29.40;1.00
21762;DHT22;11203;50.870;20.682;2022-07-21T13:30:50;29.40;1.00
21762;DHT22;11203;50.870;20.682;2022-07-21T13:33:16;29.40;1.00
21762;DHT22;11203;50.870;20.682;2022-07-21T13:35:42;29.40;1.00
21762;DHT22;11203;50.870;20.682;2022-07-21T13:38:10;29.30;1.00
21762;DHT22;11203;50.870;20.682;2022-07-21T13:40:36;29.30;1.00
21762;DHT22;11203;50.870;20.682;2022-07-21T13:43:04;29.40;1.00
21762;DHT22;11203;50.870;20.682;2022-07-21T13:45:30;29.30;1.00
21762;DHT22;11203;50.870;20.682;2022-07-21T13:47:56;29.40;1.00
21762;DHT22;11203;50.870;20.682;2022-07-21T13:50:22;29.30;1.00
21762;DHT22;11203;50.870;20.682;2022-07-21T13:52:49;29.40;1.00
21762;DHT22;11203;50.870;20.682;2022-07-21T13:55:15;29.50;1.00
21762;DHT22;11203;50.870;20.682;2022-07-21T13:57:40;29.50;1.00
21762;DHT22;11203;50.870;20.682;2022-07-21T14:00:08;29.40;1.00
21762;DHT22;11203;50.870;20.682;2022-07-21T14:02:35;29.50;1.00
21762;DHT22;11203;50.870;20.682;2022-07-21T14:05:02;29.60;1.00
21762;DHT22;11203;50.870;20.682;2022-07-21T14:07:29;29.60;1.00
21762;DHT22;11203;50.870;20.682;2022-07-21T14:09:55;29.50;1.00
21762;DHT22;11203;50.870;20.682;2022-07-21T14:12:22;29.50;1.00
21762;DHT22;11203;50.870;20.682;2022-07-21T14:14:48;29.60;1.00
21762;DHT22;11203;50.870;20.682;2022-07-21T14:17:16;29.70;1.00
21762;DHT22;11203;50.870;20.682;2022-07-21T14:19:45;29.70;1.00
21762;DHT22;11203;50.870;20.682;2022-07-21T14:22:14;29.70;1.00
21762;DHT22;11203;50.870;20.682;2022-07-21T14:24:41;29.80;1.00
21762;DHT22;11203;50.870;20.682;2022-07-21T14:27:26;29.80;1.00
21762;DHT22;11203;50.870;20.682;2022-07-21T14:29:52;29.80;1.00
21762;DHT22;11203;50.870;20.682;2022-07-21T14:32:18;29.80;1.00
21762;DHT22;11203;50.870;20.682;2022-07-21T14:34:54;29.80;1.00
21762;DHT22;11203;50.870;20.682;2022-07-21T14:37:20;29.90;1.00
21762;DHT22;11203;50.870;20.682;2022-07-21T14:39:49;29.80;1.00
21762;DHT22;11203;50.870;20.682;2022-07-21T14:42:16;29.80;1.00
21762;DHT22;11203;50.870;20.682;2022-07-21T14:44:43;29.80;1.00
21762;DHT22;11203;50.870;20.682;2022-07-21T14:47:11;29.80;1.00
21762;DHT22;11203;50.870;20.682;2022-07-21T14:49:38;29.90;1.00
21762;DHT22;11203;50.870;20.682;2022-07-21T14:52:04;29.80;1.00
21762;DHT22;11203;50.870;20.682;2022-07-21T14:54:31;29.80;1.00
21762;DHT22;11203;50.870;20.682;2022-07-21T14:56:57;29.90;1.00
21762;DHT22;11203;50.870;20.682;2022-07-21T14:59:23;29.90;1.00
21762;DHT22;11203;50.870;20.682;2022-07-21T15:01:49;30.00;1.00
21762;DHT22;11203;50.870;20.682;2022-07-21T15:04:15;29.90;1.00
21762;DHT22;11203;50.870;20.682;2022-07-21T15:06:42;30.00;1.00
21762;DHT22;11203;50.870;20.682;2022-07-21T15:09:10;29.90;1.00
21762;DHT22;11203;50.870;20.682;2022-07-21T15:11:37;29.80;1.00
21762;DHT22;11203;50.870;20.682;2022-07-21T15:14:03;30.00;1.00
21762;DHT22;11203;50.870;20.682;2022-07-21T15:16:29;30.10;1.00
21762;DHT22;11203;50.870;20.682;2022-07-21T15:18:55;30.20;1.00
21762;DHT22;11203;50.870;20.682;2022-07-21T15:21:21;30.30;1.00
21762;DHT22;11203;50.870;20.682;2022-07-21T15:23:47;30.30;1.00
21762;DHT22;11203;50.870;20.682;2022-07-21T15:26:13;30.40;1.00
21762;DHT22;11203;50.870;20.682;2022-07-21T15:28:39;30.40;1.00
21762;DHT22;11203;50.870;20.682;2022-07-21T15:31:05;30.40;1.00
21762;DHT22;11203;50.870;20.682;2022-07-21T15:33:33;30.40;1.00
21762;DHT22;11203;50.870;20.682;2022-07-21T15:35:59;30.50;1.00
21762;DHT22;11203;50.870;20.682;2022-07-21T15:38:26;30.40;1.00
21762;DHT22;11203;50.870;20.682;2022-07-21T15:40:52;30.40;1.00
21762;DHT22;11203;50.870;20.682;2022-07-21T15:43:18;30.40;1.00
21762;DHT22;11203;50.870;20.682;2022-07-21T15:45:45;30.60;1.00
21762;DHT22;11203;50.870;20.682;2022-07-21T15:48:12;30.60;1.00
21762;DHT22;11203;50.870;20.682;2022-07-21T15:50:38;30.70;1.00
21762;DHT22;11203;50.870;20.682;2022-07-21T15:53:06;30.80;1.00
21762;DHT22;11203;50.870;20.682;2022-07-21T15:55:33;30.70;1.00
21762;DHT22;11203;50.870;20.682;2022-07-21T15:57:59;30.80;1.00
21762;DHT22;11203;50.870;20.682;2022-07-21T16:00:26;30.70;1.00
21762;DHT22;11203;50.870;20.682;2022-07-21T16:02:53;30.90;1.00
21762;DHT22;11203;50.870;20.682;2022-07-21T16:05:23;30.80;1.00
21762;DHT22;11203;50.870;20.682;2022-07-21T16:07:51;31.00;1.00
21762;DHT22;11203;50.870;20.682;2022-07-21T16:10:19;31.00;1.00
21762;DHT22;11203;50.870;20.682;2022-07-21T16:12:51;31.00;1.00